GIA620 WADD-WAAA
Flight info
| Callsign | GIA620 |
|---|---|
| Flight time | N/A |
| Altitude | 35000 |
| Route | PEDET W41 LIPOT |
| Aircraft | B738/M-SDE2E3FGHIRWY/LB1 |
Departure
| Time | 2026-04-27 21:14 |
|---|---|
| Airport | Denpasar I Gusti Ngurah Rai International Airport (WADD) |
Arrival
| Time | N/A |
|---|---|
| Airport | Sultan Hasanuddin International Airport (WAAA) |
| Time | Latitude | Longitude | Altitude | Speed | Heading |
|---|---|---|---|---|---|
| 2026-04-27 20:53 | -8.74564 | 115.16472 | 32 ft | 0 kts | 358° |
| 2026-04-27 20:55 | -8.74565 | 115.16472 | 32 ft | 2 kts | 358° |
| 2026-04-27 20:56 | -8.74585 | 115.16473 | 31 ft | 3 kts | 358° |
| 2026-04-27 20:56 | -8.74606 | 115.16474 | 32 ft | 3 kts | 358° |
| 2026-04-27 20:56 | -8.74626 | 115.16475 | 30 ft | 3 kts | 358° |
| 2026-04-27 20:56 | -8.74647 | 115.16476 | 31 ft | 3 kts | 358° |
| 2026-04-27 20:57 | -8.74665 | 115.16476 | 30 ft | 3 kts | 3° |
| 2026-04-27 20:57 | -8.74682 | 115.16473 | 31 ft | 3 kts | 49° |
| 2026-04-27 20:57 | -8.74690 | 115.16456 | 31 ft | 3 kts | 84° |
| 2026-04-27 20:57 | -8.74691 | 115.16444 | 31 ft | 0 kts | 88° |
| 2026-04-27 21:00 | -8.74691 | 115.16451 | 31 ft | 3 kts | 86° |
| 2026-04-27 21:00 | -8.74685 | 115.16470 | 31 ft | 3 kts | 62° |
| 2026-04-27 21:00 | -8.74670 | 115.16476 | 31 ft | 3 kts | 11° |
| 2026-04-27 21:00 | -8.74652 | 115.16476 | 32 ft | 3 kts | 358° |
| 2026-04-27 21:01 | -8.74632 | 115.16475 | 32 ft | 3 kts | 358° |
| 2026-04-27 21:01 | -8.74611 | 115.16474 | 31 ft | 3 kts | 358° |
| 2026-04-27 21:01 | -8.74591 | 115.16473 | 32 ft | 3 kts | 358° |
| 2026-04-27 21:01 | -8.74570 | 115.16472 | 32 ft | 2 kts | 358° |
| 2026-04-27 21:02 | -8.74568 | 115.16472 | 32 ft | 0 kts | 358° |
| 2026-04-27 21:06 | -8.74584 | 115.16473 | 30 ft | 3 kts | 358° |
| 2026-04-27 21:06 | -8.74605 | 115.16474 | 32 ft | 3 kts | 358° |
| 2026-04-27 21:06 | -8.74625 | 115.16475 | 29 ft | 3 kts | 358° |
| 2026-04-27 21:07 | -8.74646 | 115.16475 | 31 ft | 3 kts | 358° |
| 2026-04-27 21:07 | -8.74664 | 115.16476 | 30 ft | 3 kts | 354° |
| 2026-04-27 21:07 | -8.74681 | 115.16481 | 29 ft | 3 kts | 309° |
| 2026-04-27 21:07 | -8.74688 | 115.16497 | 30 ft | 3 kts | 273° |
| 2026-04-27 21:08 | -8.74688 | 115.16511 | 31 ft | 0 kts | 268° |
| 2026-04-27 21:10 | -8.74689 | 115.16503 | 31 ft | 4 kts | 268° |
| 2026-04-27 21:10 | -8.74691 | 115.16444 | 31 ft | 13 kts | 268° |
| 2026-04-27 21:11 | -8.74695 | 115.16329 | 32 ft | 20 kts | 268° |
| 2026-04-27 21:11 | -8.74702 | 115.16179 | 32 ft | 22 kts | 267° |
| 2026-04-27 21:11 | -8.74708 | 115.16029 | 32 ft | 21 kts | 268° |
| 2026-04-27 21:11 | -8.74713 | 115.15883 | 32 ft | 20 kts | 267° |
| 2026-04-27 21:12 | -8.74719 | 115.15742 | 31 ft | 20 kts | 268° |
| 2026-04-27 21:12 | -8.74725 | 115.15605 | 31 ft | 20 kts | 268° |
| 2026-04-27 21:12 | -8.74731 | 115.15461 | 31 ft | 17 kts | 268° |
| 2026-04-27 21:12 | -8.74793 | 115.15390 | 30 ft | 15 kts | 182° |
| 2026-04-27 21:13 | -8.74886 | 115.15417 | 28 ft | 15 kts | 124° |
| 2026-04-27 21:13 | -8.74892 | 115.15536 | 28 ft | 21 kts | 87° |
| 2026-04-27 21:13 | -8.74879 | 115.15794 | 27 ft | 68 kts | 87° |
| 2026-04-27 21:13 | -8.74852 | 115.16511 | 28 ft | 134 kts | 88° |
| 2026-04-27 21:14 | -8.74811 | 115.17626 | 148 ft | 176 kts | 88° |
| 2026-04-27 21:14 | -8.74812 | 115.18915 | 810 ft | 187 kts | 90° |
| 2026-04-27 21:14 | -8.74768 | 115.20267 | 1472 ft | 203 kts | 88° |
| 2026-04-27 21:14 | -8.74692 | 115.21780 | 1744 ft | 227 kts | 88° |
| 2026-04-27 21:15 | -8.74612 | 115.23402 | 2258 ft | 239 kts | 88° |
| 2026-04-27 21:15 | -8.74529 | 115.25151 | 2754 ft | 254 kts | 88° |
| 2026-04-27 21:15 | -8.74446 | 115.26951 | 3611 ft | 257 kts | 88° |
| 2026-04-27 21:15 | -8.74366 | 115.28758 | 4516 ft | 259 kts | 88° |
| 2026-04-27 21:16 | -8.74287 | 115.30587 | 5352 ft | 262 kts | 88° |
| 2026-04-27 21:16 | -8.73924 | 115.32401 | 6107 ft | 269 kts | 63° |
| 2026-04-27 21:16 | -8.72729 | 115.33874 | 6900 ft | 273 kts | 48° |
| 2026-04-27 21:16 | -8.71504 | 115.35157 | 7604 ft | 277 kts | 48° |